sensor_id;sensor_type;location;lat;lon;timestamp;P1;durP1;ratioP1;P2;durP2;ratioP2
45136;SDS011;30894;51.740;19.498;2023-03-12T00:01:52;11.38;;;4.15;;
45136;SDS011;30894;51.740;19.498;2023-03-12T00:04:18;9.80;;;3.28;;
45136;SDS011;30894;51.740;19.498;2023-03-12T00:06:44;8.73;;;3.80;;
45136;SDS011;30894;51.740;19.498;2023-03-12T00:09:10;8.18;;;2.97;;
45136;SDS011;30894;51.740;19.498;2023-03-12T00:11:36;6.05;;;3.55;;
45136;SDS011;30894;51.740;19.498;2023-03-12T00:14:03;10.02;;;4.40;;
45136;SDS011;30894;51.740;19.498;2023-03-12T00:16:29;7.75;;;3.72;;
45136;SDS011;30894;51.740;19.498;2023-03-12T00:18:55;7.40;;;3.38;;
45136;SDS011;30894;51.740;19.498;2023-03-12T00:21:24;8.10;;;4.90;;
45136;SDS011;30894;51.740;19.498;2023-03-12T00:23:50;10.30;;;4.43;;
45136;SDS011;30894;51.740;19.498;2023-03-12T00:26:18;6.43;;;3.50;;
45136;SDS011;30894;51.740;19.498;2023-03-12T00:28:46;7.13;;;2.85;;
45136;SDS011;30894;51.740;19.498;2023-03-12T00:31:17;11.80;;;2.38;;
45136;SDS011;30894;51.740;19.498;2023-03-12T00:33:53;14.88;;;5.30;;
45136;SDS011;30894;51.740;19.498;2023-03-12T00:36:21;4.97;;;2.75;;
45136;SDS011;30894;51.740;19.498;2023-03-12T00:38:53;6.05;;;3.22;;
45136;SDS011;30894;51.740;19.498;2023-03-12T00:41:21;8.18;;;3.20;;
45136;SDS011;30894;51.740;19.498;2023-03-12T00:43:48;8.88;;;3.60;;
45136;SDS011;30894;51.740;19.498;2023-03-12T00:46:16;9.75;;;4.65;;
45136;SDS011;30894;51.740;19.498;2023-03-12T00:48:43;11.45;;;4.82;;
45136;SDS011;30894;51.740;19.498;2023-03-12T00:51:10;5.70;;;3.47;;
45136;SDS011;30894;51.740;19.498;2023-03-12T00:53:36;10.10;;;4.43;;
45136;SDS011;30894;51.740;19.498;2023-03-12T00:56:03;7.85;;;3.00;;
45136;SDS011;30894;51.740;19.498;2023-03-12T00:58:30;8.88;;;4.40;;
45136;SDS011;30894;51.740;19.498;2023-03-12T01:00:56;6.95;;;3.90;;
45136;SDS011;30894;51.740;19.498;2023-03-12T01:03:23;7.82;;;2.92;;
45136;SDS011;30894;51.740;19.498;2023-03-12T01:05:49;6.63;;;3.60;;
45136;SDS011;30894;51.740;19.498;2023-03-12T01:08:19;8.32;;;4.68;;
45136;SDS011;30894;51.740;19.498;2023-03-12T01:10:46;13.13;;;6.28;;
45136;SDS011;30894;51.740;19.498;2023-03-12T01:13:12;14.52;;;6.90;;
45136;SDS011;30894;51.740;19.498;2023-03-12T01:15:38;7.78;;;3.95;;
45136;SDS011;30894;51.740;19.498;2023-03-12T01:18:04;8.90;;;5.10;;
45136;SDS011;30894;51.740;19.498;2023-03-12T01:20:30;6.72;;;3.00;;
45136;SDS011;30894;51.740;19.498;2023-03-12T01:22:57;7.60;;;3.67;;
45136;SDS011;30894;51.740;19.498;2023-03-12T01:25:23;7.85;;;4.03;;
45136;SDS011;30894;51.740;19.498;2023-03-12T01:27:49;9.95;;;4.65;;
45136;SDS011;30894;51.740;19.498;2023-03-12T01:30:15;9.45;;;4.95;;
45136;SDS011;30894;51.740;19.498;2023-03-12T01:32:41;6.40;;;3.53;;
45136;SDS011;30894;51.740;19.498;2023-03-12T01:35:07;10.98;;;4.80;;
45136;SDS011;30894;51.740;19.498;2023-03-12T01:37:34;9.52;;;3.85;;
45136;SDS011;30894;51.740;19.498;2023-03-12T01:40:00;3.42;;;1.63;;
45136;SDS011;30894;51.740;19.498;2023-03-12T01:42:26;6.53;;;3.33;;
45136;SDS011;30894;51.740;19.498;2023-03-12T01:44:59;9.25;;;5.00;;
45136;SDS011;30894;51.740;19.498;2023-03-12T01:47:28;7.00;;;3.95;;
45136;SDS011;30894;51.740;19.498;2023-03-12T01:49:57;5.28;;;3.03;;
45136;SDS011;30894;51.740;19.498;2023-03-12T01:52:30;11.07;;;4.80;;
45136;SDS011;30894;51.740;19.498;2023-03-12T01:55:08;10.07;;;3.37;;
45136;SDS011;30894;51.740;19.498;2023-03-12T01:57:40;8.38;;;4.22;;
45136;SDS011;30894;51.740;19.498;2023-03-12T02:03:05;9.57;;;3.33;;
45136;SDS011;30894;51.740;19.498;2023-03-12T02:05:41;5.95;;;3.33;;
45136;SDS011;30894;51.740;19.498;2023-03-12T02:08:16;9.25;;;4.20;;
45136;SDS011;30894;51.740;19.498;2023-03-12T02:10:43;9.02;;;3.55;;
45136;SDS011;30894;51.740;19.498;2023-03-12T02:13:10;10.23;;;4.57;;
45136;SDS011;30894;51.740;19.498;2023-03-12T02:15:37;3.53;;;2.20;;
45136;SDS011;30894;51.740;19.498;2023-03-12T02:18:04;4.90;;;2.33;;
45136;SDS011;30894;51.740;19.498;2023-03-12T02:20:48;5.70;;;3.58;;
45136;SDS011;30894;51.740;19.498;2023-03-12T02:23:40;9.38;;;4.13;;
45136;SDS011;30894;51.740;19.498;2023-03-12T02:26:10;5.60;;;2.63;;
45136;SDS011;30894;51.740;19.498;2023-03-12T02:28:37;6.20;;;2.45;;
45136;SDS011;30894;51.740;19.498;2023-03-12T02:31:09;3.17;;;1.92;;
45136;SDS011;30894;51.740;19.498;2023-03-12T02:33:40;8.60;;;2.90;;
45136;SDS011;30894;51.740;19.498;2023-03-12T02:36:06;6.25;;;3.05;;
45136;SDS011;30894;51.740;19.498;2023-03-12T02:41:28;5.28;;;2.05;;
45136;SDS011;30894;51.740;19.498;2023-03-12T02:44:06;5.60;;;3.33;;
45136;SDS011;30894;51.740;19.498;2023-03-12T02:46:50;4.20;;;1.90;;
45136;SDS011;30894;51.740;19.498;2023-03-12T02:49:20;8.75;;;4.13;;
45136;SDS011;30894;51.740;19.498;2023-03-12T02:51:49;7.22;;;3.20;;
45136;SDS011;30894;51.740;19.498;2023-03-12T02:54:17;10.15;;;3.85;;
45136;SDS011;30894;51.740;19.498;2023-03-12T02:56:44;4.00;;;2.13;;
45136;SDS011;30894;51.740;19.498;2023-03-12T02:59:11;9.20;;;3.42;;
45136;SDS011;30894;51.740;19.498;2023-03-12T03:01:39;6.60;;;2.60;;
45136;SDS011;30894;51.740;19.498;2023-03-12T03:04:06;4.50;;;1.77;;
45136;SDS011;30894;51.740;19.498;2023-03-12T03:06:35;6.40;;;2.45;;
45136;SDS011;30894;51.740;19.498;2023-03-12T03:09:04;7.25;;;2.90;;
45136;SDS011;30894;51.740;19.498;2023-03-12T03:11:30;4.82;;;2.30;;
45136;SDS011;30894;51.740;19.498;2023-03-12T03:13:59;5.95;;;2.85;;
45136;SDS011;30894;51.740;19.498;2023-03-12T03:16:30;6.32;;;2.35;;
45136;SDS011;30894;51.740;19.498;2023-03-12T03:18:57;4.47;;;2.47;;
45136;SDS011;30894;51.740;19.498;2023-03-12T03:21:23;3.83;;;2.22;;
45136;SDS011;30894;51.740;19.498;2023-03-12T03:23:50;2.60;;;1.50;;
45136;SDS011;30894;51.740;19.498;2023-03-12T03:26:20;5.07;;;2.83;;
45136;SDS011;30894;51.740;19.498;2023-03-12T03:28:48;2.13;;;1.65;;
45136;SDS011;30894;51.740;19.498;2023-03-12T03:31:15;3.33;;;1.90;;
45136;SDS011;30894;51.740;19.498;2023-03-12T03:33:42;6.85;;;2.50;;
45136;SDS011;30894;51.740;19.498;2023-03-12T03:36:09;9.02;;;2.08;;
45136;SDS011;30894;51.740;19.498;2023-03-12T03:38:39;8.10;;;2.35;;
45136;SDS011;30894;51.740;19.498;2023-03-12T03:41:06;5.05;;;2.42;;
45136;SDS011;30894;51.740;19.498;2023-03-12T03:43:32;2.28;;;1.65;;
45136;SDS011;30894;51.740;19.498;2023-03-12T03:45:59;7.82;;;2.00;;
45136;SDS011;30894;51.740;19.498;2023-03-12T03:48:28;4.82;;;1.60;;
45136;SDS011;30894;51.740;19.498;2023-03-12T03:50:58;4.65;;;1.63;;
45136;SDS011;30894;51.740;19.498;2023-03-12T03:53:26;3.35;;;1.35;;
45136;SDS011;30894;51.740;19.498;2023-03-12T03:55:52;4.43;;;2.28;;
45136;SDS011;30894;51.740;19.498;2023-03-12T03:58:18;3.45;;;1.45;;
45136;SDS011;30894;51.740;19.498;2023-03-12T04:00:44;4.72;;;2.35;;
45136;SDS011;30894;51.740;19.498;2023-03-12T04:03:11;4.28;;;2.75;;
45136;SDS011;30894;51.740;19.498;2023-03-12T04:05:39;8.30;;;1.90;;
45136;SDS011;30894;51.740;19.498;2023-03-12T04:08:09;10.65;;;3.63;;
45136;SDS011;30894;51.740;19.498;2023-03-12T04:10:38;6.32;;;2.33;;
45136;SDS011;30894;51.740;19.498;2023-03-12T04:13:05;5.90;;;2.45;;
45136;SDS011;30894;51.740;19.498;2023-03-12T04:15:31;2.42;;;1.52;;
45136;SDS011;30894;51.740;19.498;2023-03-12T04:17:57;2.58;;;1.67;;
45136;SDS011;30894;51.740;19.498;2023-03-12T04:20:23;2.75;;;1.90;;
45136;SDS011;30894;51.740;19.498;2023-03-12T04:22:49;3.72;;;1.92;;
45136;SDS011;30894;51.740;19.498;2023-03-12T04:25:16;8.23;;;2.15;;
45136;SDS011;30894;51.740;19.498;2023-03-12T04:27:42;7.97;;;3.30;;
45136;SDS011;30894;51.740;19.498;2023-03-12T04:30:08;3.35;;;2.05;;
45136;SDS011;30894;51.740;19.498;2023-03-12T04:32:35;2.70;;;1.80;;
45136;SDS011;30894;51.740;19.498;2023-03-12T04:35:02;5.95;;;2.25;;
45136;SDS011;30894;51.740;19.498;2023-03-12T04:37:31;3.40;;;2.25;;
45136;SDS011;30894;51.740;19.498;2023-03-12T04:39:59;4.38;;;1.55;;
45136;SDS011;30894;51.740;19.498;2023-03-12T04:42:26;3.47;;;1.92;;
45136;SDS011;30894;51.740;19.498;2023-03-12T04:44:52;3.65;;;1.63;;
45136;SDS011;30894;51.740;19.498;2023-03-12T04:47:19;5.05;;;2.88;;
45136;SDS011;30894;51.740;19.498;2023-03-12T04:49:45;5.85;;;2.78;;
45136;SDS011;30894;51.740;19.498;2023-03-12T04:52:11;2.33;;;1.60;;
45136;SDS011;30894;51.740;19.498;2023-03-12T04:54:38;1.42;;;1.02;;
45136;SDS011;30894;51.740;19.498;2023-03-12T04:57:04;2.80;;;0.93;;
45136;SDS011;30894;51.740;19.498;2023-03-12T04:59:31;2.30;;;1.58;;
45136;SDS011;30894;51.740;19.498;2023-03-12T05:01:57;3.53;;;1.70;;
45136;SDS011;30894;51.740;19.498;2023-03-12T05:04:24;4.00;;;1.92;;
45136;SDS011;30894;51.740;19.498;2023-03-12T05:06:50;2.03;;;1.30;;
45136;SDS011;30894;51.740;19.498;2023-03-12T05:09:17;6.18;;;1.92;;
45136;SDS011;30894;51.740;19.498;2023-03-12T05:11:43;2.72;;;1.50;;
45136;SDS011;30894;51.740;19.498;2023-03-12T05:14:10;3.95;;;1.30;;
45136;SDS011;30894;51.740;19.498;2023-03-12T05:16:36;2.42;;;1.13;;
45136;SDS011;30894;51.740;19.498;2023-03-12T05:19:02;2.13;;;1.63;;
45136;SDS011;30894;51.740;19.498;2023-03-12T05:21:29;4.80;;;1.77;;
45136;SDS011;30894;51.740;19.498;2023-03-12T05:23:57;4.18;;;1.98;;
45136;SDS011;30894;51.740;19.498;2023-03-12T05:26:25;3.40;;;1.50;;
45136;SDS011;30894;51.740;19.498;2023-03-12T05:28:56;3.00;;;1.83;;
45136;SDS011;30894;51.740;19.498;2023-03-12T05:31:23;3.78;;;1.63;;
45136;SDS011;30894;51.740;19.498;2023-03-12T05:33:51;4.03;;;2.47;;
45136;SDS011;30894;51.740;19.498;2023-03-12T05:36:18;4.82;;;1.85;;
45136;SDS011;30894;51.740;19.498;2023-03-12T05:38:45;7.22;;;2.25;;
45136;SDS011;30894;51.740;19.498;2023-03-12T05:41:17;7.18;;;2.58;;
45136;SDS011;30894;51.740;19.498;2023-03-12T05:43:49;4.40;;;2.22;;
45136;SDS011;30894;51.740;19.498;2023-03-12T05:46:18;2.70;;;1.63;;
45136;SDS011;30894;51.740;19.498;2023-03-12T05:48:45;6.97;;;3.33;;
45136;SDS011;30894;51.740;19.498;2023-03-12T05:51:12;2.95;;;1.75;;
45136;SDS011;30894;51.740;19.498;2023-03-12T05:53:38;5.43;;;2.05;;
45136;SDS011;30894;51.740;19.498;2023-03-12T05:56:06;5.97;;;2.08;;
45136;SDS011;30894;51.740;19.498;2023-03-12T05:58:36;2.58;;;1.42;;
45136;SDS011;30894;51.740;19.498;2023-03-12T06:01:02;7.80;;;1.92;;
45136;SDS011;30894;51.740;19.498;2023-03-12T06:03:36;4.63;;;2.17;;
45136;SDS011;30894;51.740;19.498;2023-03-12T06:06:03;4.93;;;2.85;;
45136;SDS011;30894;51.740;19.498;2023-03-12T06:08:30;5.57;;;2.60;;
45136;SDS011;30894;51.740;19.498;2023-03-12T06:10:56;6.75;;;1.85;;
45136;SDS011;30894;51.740;19.498;2023-03-12T06:13:24;4.85;;;2.17;;
45136;SDS011;30894;51.740;19.498;2023-03-12T06:15:51;8.02;;;2.00;;
45136;SDS011;30894;51.740;19.498;2023-03-12T06:18:18;2.40;;;1.75;;
45136;SDS011;30894;51.740;19.498;2023-03-12T06:20:47;4.75;;;1.67;;
45136;SDS011;30894;51.740;19.498;2023-03-12T06:23:14;3.95;;;1.83;;
45136;SDS011;30894;51.740;19.498;2023-03-12T06:25:43;4.78;;;1.80;;
45136;SDS011;30894;51.740;19.498;2023-03-12T06:28:10;2.33;;;1.63;;
45136;SDS011;30894;51.740;19.498;2023-03-12T06:30:36;4.78;;;2.00;;
45136;SDS011;30894;51.740;19.498;2023-03-12T06:33:03;3.17;;;1.40;;
45136;SDS011;30894;51.740;19.498;2023-03-12T06:35:31;5.40;;;1.67;;
45136;SDS011;30894;51.740;19.498;2023-03-12T06:37:57;3.55;;;1.30;;
45136;SDS011;30894;51.740;19.498;2023-03-12T06:40:23;3.30;;;1.75;;
45136;SDS011;30894;51.740;19.498;2023-03-12T06:42:50;5.32;;;1.88;;
45136;SDS011;30894;51.740;19.498;2023-03-12T06:45:16;5.70;;;2.65;;
45136;SDS011;30894;51.740;19.498;2023-03-12T06:47:43;3.47;;;1.88;;
45136;SDS011;30894;51.740;19.498;2023-03-12T06:50:09;3.50;;;1.75;;
45136;SDS011;30894;51.740;19.498;2023-03-12T06:52:36;9.43;;;2.40;;
45136;SDS011;30894;51.740;19.498;2023-03-12T06:55:05;4.68;;;2.05;;
45136;SDS011;30894;51.740;19.498;2023-03-12T06:57:34;5.55;;;2.20;;
45136;SDS011;30894;51.740;19.498;2023-03-12T07:00:01;3.75;;;2.22;;
45136;SDS011;30894;51.740;19.498;2023-03-12T07:02:29;3.65;;;1.92;;
45136;SDS011;30894;51.740;19.498;2023-03-12T07:04:56;2.00;;;1.05;;
45136;SDS011;30894;51.740;19.498;2023-03-12T07:07:25;4.50;;;1.70;;
45136;SDS011;30894;51.740;19.498;2023-03-12T07:09:52;2.45;;;1.52;;
45136;SDS011;30894;51.740;19.498;2023-03-12T07:12:18;5.38;;;2.00;;
45136;SDS011;30894;51.740;19.498;2023-03-12T07:14:45;3.13;;;2.10;;
45136;SDS011;30894;51.740;19.498;2023-03-12T07:17:11;6.75;;;1.80;;
45136;SDS011;30894;51.740;19.498;2023-03-12T07:19:38;7.72;;;2.83;;
45136;SDS011;30894;51.740;19.498;2023-03-12T07:22:11;8.20;;;3.00;;
45136;SDS011;30894;51.740;19.498;2023-03-12T07:24:39;4.85;;;1.58;;
45136;SDS011;30894;51.740;19.498;2023-03-12T07:27:05;4.55;;;2.78;;
45136;SDS011;30894;51.740;19.498;2023-03-12T07:29:32;3.05;;;1.83;;
45136;SDS011;30894;51.740;19.498;2023-03-12T07:31:58;3.20;;;1.88;;
45136;SDS011;30894;51.740;19.498;2023-03-12T07:34:25;2.13;;;1.50;;
45136;SDS011;30894;51.740;19.498;2023-03-12T07:36:51;6.28;;;1.95;;
45136;SDS011;30894;51.740;19.498;2023-03-12T07:39:19;2.17;;;1.48;;
45136;SDS011;30894;51.740;19.498;2023-03-12T07:41:46;6.43;;;2.40;;
45136;SDS011;30894;51.740;19.498;2023-03-12T07:44:13;3.28;;;1.50;;
45136;SDS011;30894;51.740;19.498;2023-03-12T07:46:42;3.25;;;1.77;;
45136;SDS011;30894;51.740;19.498;2023-03-12T07:49:09;2.42;;;1.45;;
45136;SDS011;30894;51.740;19.498;2023-03-12T07:51:36;4.20;;;1.95;;
45136;SDS011;30894;51.740;19.498;2023-03-12T07:54:02;4.75;;;2.00;;
45136;SDS011;30894;51.740;19.498;2023-03-12T07:56:30;2.35;;;1.88;;
45136;SDS011;30894;51.740;19.498;2023-03-12T07:58:57;5.13;;;1.55;;
45136;SDS011;30894;51.740;19.498;2023-03-12T08:01:24;5.75;;;1.67;;
45136;SDS011;30894;51.740;19.498;2023-03-12T08:03:59;3.40;;;2.08;;
45136;SDS011;30894;51.740;19.498;2023-03-12T08:06:27;3.28;;;1.80;;
45136;SDS011;30894;51.740;19.498;2023-03-12T08:08:54;2.70;;;2.03;;
45136;SDS011;30894;51.740;19.498;2023-03-12T08:11:21;3.28;;;1.75;;
45136;SDS011;30894;51.740;19.498;2023-03-12T08:13:50;2.30;;;1.15;;
45136;SDS011;30894;51.740;19.498;2023-03-12T08:16:17;4.35;;;2.25;;
45136;SDS011;30894;51.740;19.498;2023-03-12T08:18:48;4.20;;;1.75;;
45136;SDS011;30894;51.740;19.498;2023-03-12T08:21:19;2.97;;;1.50;;
45136;SDS011;30894;51.740;19.498;2023-03-12T08:23:45;4.80;;;1.98;;
45136;SDS011;30894;51.740;19.498;2023-03-12T08:26:15;6.18;;;1.95;;
45136;SDS011;30894;51.740;19.498;2023-03-12T08:28:45;5.85;;;1.95;;
45136;SDS011;30894;51.740;19.498;2023-03-12T08:31:12;3.85;;;2.10;;
45136;SDS011;30894;51.740;19.498;2023-03-12T08:33:38;2.83;;;1.95;;
45136;SDS011;30894;51.740;19.498;2023-03-12T08:36:08;2.72;;;1.77;;
45136;SDS011;30894;51.740;19.498;2023-03-12T08:38:35;2.45;;;1.40;;
45136;SDS011;30894;51.740;19.498;2023-03-12T08:41:02;2.30;;;1.83;;
45136;SDS011;30894;51.740;19.498;2023-03-12T08:43:31;4.13;;;1.80;;
45136;SDS011;30894;51.740;19.498;2023-03-12T08:45:59;5.60;;;2.55;;
45136;SDS011;30894;51.740;19.498;2023-03-12T08:48:28;4.07;;;1.42;;
45136;SDS011;30894;51.740;19.498;2023-03-12T08:50:57;4.50;;;1.52;;
45136;SDS011;30894;51.740;19.498;2023-03-12T08:53:32;4.90;;;2.08;;
45136;SDS011;30894;51.740;19.498;2023-03-12T08:56:01;1.90;;;1.73;;
45136;SDS011;30894;51.740;19.498;2023-03-12T08:58:28;2.38;;;1.48;;
45136;SDS011;30894;51.740;19.498;2023-03-12T09:00:56;3.38;;;1.40;;
45136;SDS011;30894;51.740;19.498;2023-03-12T09:03:23;2.55;;;1.85;;
45136;SDS011;30894;51.740;19.498;2023-03-12T09:06:00;4.30;;;1.77;;
45136;SDS011;30894;51.740;19.498;2023-03-12T09:08:39;2.80;;;1.58;;
45136;SDS011;30894;51.740;19.498;2023-03-12T09:11:09;5.80;;;2.03;;
45136;SDS011;30894;51.740;19.498;2023-03-12T09:13:40;3.55;;;1.80;;
45136;SDS011;30894;51.740;19.498;2023-03-12T09:16:10;3.10;;;1.75;;
45136;SDS011;30894;51.740;19.498;2023-03-12T09:18:36;1.58;;;1.10;;
45136;SDS011;30894;51.740;19.498;2023-03-12T09:21:03;2.63;;;1.67;;
45136;SDS011;30894;51.740;19.498;2023-03-12T09:23:31;1.23;;;1.05;;
45136;SDS011;30894;51.740;19.498;2023-03-12T09:26:00;2.17;;;1.25;;
45136;SDS011;30894;51.740;19.498;2023-03-12T09:28:26;4.00;;;1.95;;
45136;SDS011;30894;51.740;19.498;2023-03-12T09:30:53;4.75;;;1.67;;
45136;SDS011;30894;51.740;19.498;2023-03-12T09:33:20;3.13;;;1.40;;
45136;SDS011;30894;51.740;19.498;2023-03-12T09:35:54;2.33;;;1.15;;
45136;SDS011;30894;51.740;19.498;2023-03-12T09:38:25;2.85;;;1.38;;
45136;SDS011;30894;51.740;19.498;2023-03-12T09:40:56;2.30;;;1.52;;
45136;SDS011;30894;51.740;19.498;2023-03-12T09:43:27;4.68;;;1.48;;
45136;SDS011;30894;51.740;19.498;2023-03-12T09:46:10;1.65;;;1.40;;
45136;SDS011;30894;51.740;19.498;2023-03-12T09:48:47;4.15;;;1.23;;
45136;SDS011;30894;51.740;19.498;2023-03-12T09:51:35;3.70;;;1.73;;
45136;SDS011;30894;51.740;19.498;2023-03-12T09:54:51;3.30;;;1.52;;
45136;SDS011;30894;51.740;19.498;2023-03-12T09:57:56;5.43;;;2.28;;
45136;SDS011;30894;51.740;19.498;2023-03-12T10:00:25;3.17;;;1.70;;
45136;SDS011;30894;51.740;19.498;2023-03-12T10:11:51;2.78;;;1.92;;
45136;SDS011;30894;51.740;19.498;2023-03-12T10:18:35;3.22;;;1.63;;
45136;SDS011;30894;51.740;19.498;2023-03-12T10:21:18;2.65;;;1.60;;
45136;SDS011;30894;51.740;19.498;2023-03-12T10:24:32;4.80;;;2.05;;
45136;SDS011;30894;51.740;19.498;2023-03-12T10:27:15;3.97;;;1.60;;
45136;SDS011;30894;51.740;19.498;2023-03-12T10:29:47;4.53;;;1.35;;
45136;SDS011;30894;51.740;19.498;2023-03-12T10:32:35;1.98;;;1.42;;
45136;SDS011;30894;51.740;19.498;2023-03-12T10:35:27;2.92;;;1.73;;
45136;SDS011;30894;51.740;19.498;2023-03-12T10:40:39;3.88;;;1.55;;
45136;SDS011;30894;51.740;19.498;2023-03-12T10:43:09;2.72;;;1.63;;
45136;SDS011;30894;51.740;19.498;2023-03-12T10:48:41;1.70;;;1.23;;
45136;SDS011;30894;51.740;19.498;2023-03-12T10:51:11;2.78;;;1.20;;
45136;SDS011;30894;51.740;19.498;2023-03-12T10:53:52;4.40;;;1.73;;
45136;SDS011;30894;51.740;19.498;2023-03-12T10:56:19;1.27;;;1.10;;
45136;SDS011;30894;51.740;19.498;2023-03-12T10:58:50;1.88;;;1.50;;
45136;SDS011;30894;51.740;19.498;2023-03-12T11:01:42;4.07;;;1.80;;
45136;SDS011;30894;51.740;19.498;2023-03-12T11:04:20;4.28;;;1.55;;
45136;SDS011;30894;51.740;19.498;2023-03-12T11:12:51;4.22;;;1.33;;
45136;SDS011;30894;51.740;19.498;2023-03-12T11:19:13;1.85;;;1.10;;
45136;SDS011;30894;51.740;19.498;2023-03-12T11:24:30;1.30;;;0.90;;
45136;SDS011;30894;51.740;19.498;2023-03-12T11:27:40;6.00;;;2.10;;
45136;SDS011;30894;51.740;19.498;2023-03-12T11:30:35;3.55;;;1.13;;
45136;SDS011;30894;51.740;19.498;2023-03-12T11:33:16;4.50;;;1.27;;
45136;SDS011;30894;51.740;19.498;2023-03-12T11:38:19;9.50;;;1.05;;
45136;SDS011;30894;51.740;19.498;2023-03-12T11:46:51;2.90;;;1.20;;
45136;SDS011;30894;51.740;19.498;2023-03-12T11:49:41;2.80;;;1.10;;
45136;SDS011;30894;51.740;19.498;2023-03-12T11:52:54;3.03;;;1.27;;
45136;SDS011;30894;51.740;19.498;2023-03-12T11:59:13;1.13;;;0.80;;
45136;SDS011;30894;51.740;19.498;2023-03-12T12:02:35;3.53;;;1.42;;
45136;SDS011;30894;51.740;19.498;2023-03-12T12:05:37;3.75;;;1.42;;
45136;SDS011;30894;51.740;19.498;2023-03-12T12:11:06;2.92;;;1.40;;
45136;SDS011;30894;51.740;19.498;2023-03-12T12:16:53;1.90;;;0.98;;
45136;SDS011;30894;51.740;19.498;2023-03-12T12:26:27;1.80;;;1.00;;
45136;SDS011;30894;51.740;19.498;2023-03-12T12:32:48;1.80;;;1.00;;
45136;SDS011;30894;51.740;19.498;2023-03-12T12:40:46;1.30;;;1.05;;
45136;SDS011;30894;51.740;19.498;2023-03-12T12:43:48;3.80;;;1.10;;
45136;SDS011;30894;51.740;19.498;2023-03-12T12:46:24;1.55;;;1.13;;
45136;SDS011;30894;51.740;19.498;2023-03-12T12:49:25;3.92;;;1.15;;
45136;SDS011;30894;51.740;19.498;2023-03-12T12:52:24;7.60;;;1.40;;
45136;SDS011;30894;51.740;19.498;2023-03-12T12:58:26;2.30;;;1.13;;
45136;SDS011;30894;51.740;19.498;2023-03-12T13:01:30;2.05;;;1.20;;
45136;SDS011;30894;51.740;19.498;2023-03-12T13:04:14;2.50;;;1.23;;
45136;SDS011;30894;51.740;19.498;2023-03-12T13:13:18;2.83;;;0.70;;
45136;SDS011;30894;51.740;19.498;2023-03-12T13:15:47;2.08;;;1.25;;
45136;SDS011;30894;51.740;19.498;2023-03-12T13:18:20;3.10;;;1.60;;
45136;SDS011;30894;51.740;19.498;2023-03-12T13:23:31;2.88;;;1.15;;
45136;SDS011;30894;51.740;19.498;2023-03-12T13:26:54;3.08;;;1.35;;
45136;SDS011;30894;51.740;19.498;2023-03-12T13:30:25;3.35;;;1.35;;
45136;SDS011;30894;51.740;19.498;2023-03-12T13:33:16;3.25;;;1.20;;
45136;SDS011;30894;51.740;19.498;2023-03-12T13:36:36;2.95;;;1.20;;
45136;SDS011;30894;51.740;19.498;2023-03-12T13:42:03;1.92;;;1.23;;
45136;SDS011;30894;51.740;19.498;2023-03-12T13:45:21;2.30;;;1.00;;
45136;SDS011;30894;51.740;19.498;2023-03-12T13:48:03;2.13;;;0.82;;
45136;SDS011;30894;51.740;19.498;2023-03-12T13:50:47;2.17;;;1.25;;
45136;SDS011;30894;51.740;19.498;2023-03-12T13:53:27;1.70;;;1.02;;
45136;SDS011;30894;51.740;19.498;2023-03-12T13:56:02;1.65;;;1.10;;
45136;SDS011;30894;51.740;19.498;2023-03-12T13:58:47;3.00;;;1.35;;
45136;SDS011;30894;51.740;19.498;2023-03-12T14:01:29;2.00;;;1.35;;
45136;SDS011;30894;51.740;19.498;2023-03-12T14:04:31;3.00;;;1.50;;
45136;SDS011;30894;51.740;19.498;2023-03-12T14:07:18;5.47;;;1.70;;
45136;SDS011;30894;51.740;19.498;2023-03-12T14:18:19;2.67;;;1.23;;
45136;SDS011;30894;51.740;19.498;2023-03-12T14:20:56;3.38;;;1.40;;
45136;SDS011;30894;51.740;19.498;2023-03-12T14:23:28;2.20;;;1.30;;
45136;SDS011;30894;51.740;19.498;2023-03-12T14:26:04;1.67;;;1.25;;
45136;SDS011;30894;51.740;19.498;2023-03-12T14:28:37;4.40;;;1.88;;
45136;SDS011;30894;51.740;19.498;2023-03-12T14:31:08;3.42;;;1.63;;
45136;SDS011;30894;51.740;19.498;2023-03-12T14:33:45;2.28;;;1.33;;
45136;SDS011;30894;51.740;19.498;2023-03-12T14:36:26;6.70;;;1.77;;
45136;SDS011;30894;51.740;19.498;2023-03-12T14:39:35;3.08;;;1.58;;
45136;SDS011;30894;51.740;19.498;2023-03-12T14:42:08;5.35;;;1.48;;
45136;SDS011;30894;51.740;19.498;2023-03-12T14:44:52;4.53;;;1.55;;
45136;SDS011;30894;51.740;19.498;2023-03-12T14:47:41;2.72;;;1.55;;
45136;SDS011;30894;51.740;19.498;2023-03-12T14:50:20;3.75;;;1.30;;
45136;SDS011;30894;51.740;19.498;2023-03-12T14:53:09;4.95;;;1.52;;
45136;SDS011;30894;51.740;19.498;2023-03-12T14:55:38;3.47;;;1.88;;
45136;SDS011;30894;51.740;19.498;2023-03-12T14:58:06;3.60;;;1.42;;
45136;SDS011;30894;51.740;19.498;2023-03-12T15:00:53;3.83;;;1.85;;
45136;SDS011;30894;51.740;19.498;2023-03-12T15:03:42;5.43;;;1.27;;
45136;SDS011;30894;51.740;19.498;2023-03-12T15:06:17;4.03;;;1.52;;
45136;SDS011;30894;51.740;19.498;2023-03-12T15:11:29;3.70;;;1.40;;
45136;SDS011;30894;51.740;19.498;2023-03-12T15:14:04;2.97;;;1.48;;
45136;SDS011;30894;51.740;19.498;2023-03-12T15:16:37;8.68;;;1.42;;
45136;SDS011;30894;51.740;19.498;2023-03-12T15:19:15;4.60;;;1.42;;
45136;SDS011;30894;51.740;19.498;2023-03-12T15:21:49;3.85;;;2.25;;
45136;SDS011;30894;51.740;19.498;2023-03-12T15:24:18;2.83;;;1.42;;
45136;SDS011;30894;51.740;19.498;2023-03-12T15:26:55;5.47;;;1.95;;
45136;SDS011;30894;51.740;19.498;2023-03-12T15:30:24;2.38;;;1.15;;
45136;SDS011;30894;51.740;19.498;2023-03-12T15:33:03;5.40;;;1.70;;
45136;SDS011;30894;51.740;19.498;2023-03-12T15:35:35;5.85;;;2.10;;
45136;SDS011;30894;51.740;19.498;2023-03-12T15:38:04;2.38;;;1.38;;
45136;SDS011;30894;51.740;19.498;2023-03-12T15:40:39;4.85;;;1.60;;
45136;SDS011;30894;51.740;19.498;2023-03-12T15:43:13;4.45;;;1.58;;
45136;SDS011;30894;51.740;19.498;2023-03-12T15:45:44;5.30;;;1.55;;
45136;SDS011;30894;51.740;19.498;2023-03-12T15:48:24;3.50;;;1.77;;
45136;SDS011;30894;51.740;19.498;2023-03-12T15:50:55;4.25;;;1.50;;
45136;SDS011;30894;51.740;19.498;2023-03-12T15:53:25;2.65;;;1.08;;
45136;SDS011;30894;51.740;19.498;2023-03-12T15:56:03;6.57;;;1.67;;
45136;SDS011;30894;51.740;19.498;2023-03-12T15:58:36;3.55;;;1.55;;
45136;SDS011;30894;51.740;19.498;2023-03-12T16:01:06;4.50;;;1.30;;
45136;SDS011;30894;51.740;19.498;2023-03-12T16:03:48;3.35;;;1.80;;
45136;SDS011;30894;51.740;19.498;2023-03-12T16:06:16;2.67;;;1.45;;
45136;SDS011;30894;51.740;19.498;2023-03-12T16:08:58;6.75;;;1.98;;
45136;SDS011;30894;51.740;19.498;2023-03-12T16:11:32;6.57;;;1.88;;
45136;SDS011;30894;51.740;19.498;2023-03-12T16:14:19;4.07;;;1.80;;
45136;SDS011;30894;51.740;19.498;2023-03-12T16:16:50;4.20;;;2.03;;
45136;SDS011;30894;51.740;19.498;2023-03-12T16:19:18;3.60;;;2.00;;
45136;SDS011;30894;51.740;19.498;2023-03-12T16:21:47;4.68;;;1.70;;
45136;SDS011;30894;51.740;19.498;2023-03-12T16:24:14;3.90;;;1.83;;
45136;SDS011;30894;51.740;19.498;2023-03-12T16:26:51;3.60;;;1.92;;
45136;SDS011;30894;51.740;19.498;2023-03-12T16:29:22;6.43;;;2.08;;
45136;SDS011;30894;51.740;19.498;2023-03-12T16:32:16;3.30;;;1.90;;
45136;SDS011;30894;51.740;19.498;2023-03-12T16:34:42;6.05;;;2.28;;
45136;SDS011;30894;51.740;19.498;2023-03-12T16:37:10;10.45;;;2.13;;
45136;SDS011;30894;51.740;19.498;2023-03-12T16:39:37;5.07;;;1.73;;
45136;SDS011;30894;51.740;19.498;2023-03-12T16:42:25;3.90;;;1.73;;
45136;SDS011;30894;51.740;19.498;2023-03-12T16:44:51;8.85;;;2.92;;